Coventry, Rhode Island
Current Conditions -  °F | °C
As of 5:29 AM on Tuesday 27 Jan 2015 (Local Time) from KPVD Reporting Station
Moderate Snow Moderate Snow  
Wind Chill: -3°   Ceiling: 500
Heat Index: 17°   Visibility: 0.5mi
Dew Point: 13°   Wind: 31mph
Humidity: 84%   Direction: 350°N
Pressure: 29.52"   Gusts: 45mph
Location:  41.69°N, 71.57°W
Report Text: KPVD 271029Z 35027G39KT 1/2SM R05/1600V2200FT SN BLSN FZFG VV005 M08/M11 A2952 RMK AO2 PK WND 35042/1017 P0001 T10831106 $
Loading
Personal Weather Stations






























Interactive Weather Map New forecast layout! Learn more

10-Day Weather Forecast

Advertisements
Track Severe Weather on mobile